Time;durP1;ratioP1;P1;durP2;ratioP2;P2;SDS_P1;SDS_P2;PMS_P1;PMS_P2;Temp;Humidity;BMP_temperature;BMP_pressure;BME280_temperature;BME280_humidity;BME280_pressure;Samples;Min_cycle;Max_cycle;Signal;HPM_P1;HPM_P2
2022/04/22 00:00:22;;;;;;;12.83;7.83;;;;;;;;;;5103003;28;20035;-70
2022/04/22 00:02:49;;;;;;;13.13;7.77;;;;;;;;;;5126431;27;20115;-70
2022/04/22 00:05:17;;;;;;;13.23;7.40;;;;;;;;;;5123463;27;20024;-68
2022/04/22 00:07:43;;;;;;;8.80;6.90;;;;;;;;;;5113227;28;20150;-68
2022/04/22 00:10:11;;;;;;;9.83;7.10;;;;;;;;;;5110361;28;20032;-68
2022/04/22 00:12:38;;;;;;;13.47;9.67;;;;;;;;;;5111565;27;20031;-69
2022/04/22 00:15:05;;;;;;;11.00;8.77;;;;;;;;;;5110247;28;20034;-68
2022/04/22 00:17:32;;;;;;;11.90;7.63;;;;;;;;;;5111545;27;20035;-68
2022/04/22 00:19:59;;;;;;;14.93;9.13;;;;;;;;;;5115720;28;20046;-68
2022/04/22 00:22:25;;;;;;;12.67;8.50;;;;;;;;;;5120726;27;20446;-68
2022/04/22 00:24:53;;;;;;;15.50;9.60;;;;;;;;;;5115350;27;20039;-68
2022/04/22 00:27:20;;;;;;;11.77;8.30;;;;;;;;;;5116458;27;20030;-68
2022/04/22 00:29:47;;;;;;;11.50;9.20;;;;;;;;;;5113692;28;20918;-70
2022/04/22 00:32:13;;;;;;;14.63;8.90;;;;;;;;;;5109739;27;20374;-68
2022/04/22 00:34:41;;;;;;;11.97;7.90;;;;;;;;;;5102042;27;20036;-68
2022/04/22 00:37:07;;;;;;;12.57;8.70;;;;;;;;;;5114676;27;20027;-68
2022/04/22 00:39:34;;;;;;;13.87;8.27;;;;;;;;;;5130372;27;20019;-68
2022/04/22 00:42:10;;;;;;;11.97;7.93;;;;;;;;;;5135217;27;20118;-68
2022/04/22 00:44:37;;;;;;;11.10;8.17;;;;;;;;;;5135614;27;20103;-70
2022/04/22 00:47:04;;;;;;;15.73;8.03;;;;;;;;;;5127636;27;20028;-68
2022/04/22 00:49:31;;;;;;;11.50;8.03;;;;;;;;;;5114569;28;20134;-68
2022/04/22 00:51:58;;;;;;;11.60;7.83;;;;;;;;;;5113335;28;20037;-68
2022/04/22 00:54:24;;;;;;;10.30;7.80;;;;;;;;;;5109233;28;20076;-68
2022/04/22 00:56:52;;;;;;;12.90;8.43;;;;;;;;;;5109281;28;20024;-68
2022/04/22 00:59:18;;;;;;;10.70;8.37;;;;;;;;;;5108581;28;20034;-68
2022/04/22 01:01:45;;;;;;;11.20;8.40;;;;;;;;;;5108708;28;20074;-68
2022/04/22 01:09:49;;;;;;;18.00;9.90;;;;;;;;;;5114472;28;20096;-67
2022/04/22 01:12:16;;;;;;;12.67;9.20;;;;;;;;;;5104307;28;20121;-68
2022/04/22 01:14:43;;;;;;;19.30;9.53;;;;;;;;;;5112234;28;20027;-68
2022/04/22 01:17:10;;;;;;;12.43;8.50;;;;;;;;;;5108703;28;20020;-67
2022/04/22 01:19:36;;;;;;;12.50;8.63;;;;;;;;;;5108570;28;20034;-68
2022/04/22 01:22:03;;;;;;;11.90;9.53;;;;;;;;;;5108629;28;20389;-68
2022/04/22 01:24:31;;;;;;;13.93;9.37;;;;;;;;;;5109645;28;20044;-67
2022/04/22 01:26:57;;;;;;;12.50;9.67;;;;;;;;;;5113724;28;20024;-68
2022/04/22 01:29:24;;;;;;;13.37;9.23;;;;;;;;;;5113705;28;20363;-68
2022/04/22 01:31:51;;;;;;;14.00;10.33;;;;;;;;;;5114029;28;20169;-68
2022/04/22 01:34:18;;;;;;;15.70;10.47;;;;;;;;;;5114038;28;20073;-68
2022/04/22 01:36:44;;;;;;;16.57;11.10;;;;;;;;;;5112475;28;20047;-68
2022/04/22 01:39:11;;;;;;;13.77;10.43;;;;;;;;;;5108360;28;20047;-68
2022/04/22 01:41:38;;;;;;;18.40;10.83;;;;;;;;;;5108303;28;20032;-67
2022/04/22 01:44:04;;;;;;;16.07;11.50;;;;;;;;;;5108067;28;20038;-68
2022/04/22 01:46:31;;;;;;;15.93;11.97;;;;;;;;;;5108438;28;20039;-67
2022/04/22 01:48:58;;;;;;;18.23;12.13;;;;;;;;;;5113592;28;20015;-67
2022/04/22 01:51:25;;;;;;;16.43;11.27;;;;;;;;;;5113534;28;20497;-68
2022/04/22 01:53:51;;;;;;;17.13;12.17;;;;;;;;;;5113705;28;20024;-68
2022/04/22 01:56:18;;;;;;;13.13;11.37;;;;;;;;;;5113540;28;20040;-68
2022/04/22 01:58:45;;;;;;;15.47;12.17;;;;;;;;;;5112797;28;20015;-68
2022/04/22 02:01:12;;;;;;;18.17;11.70;;;;;;;;;;5107723;28;20043;-69
2022/04/22 02:03:38;;;;;;;20.13;12.50;;;;;;;;;;5107765;28;20035;-69
2022/04/22 02:06:05;;;;;;;19.60;13.40;;;;;;;;;;5107121;28;20104;-70
2022/04/22 02:08:32;;;;;;;18.80;14.03;;;;;;;;;;5107721;28;20501;-69
2022/04/22 02:10:59;;;;;;;19.03;13.57;;;;;;;;;;5112593;28;20503;-69
2022/04/22 02:13:25;;;;;;;25.37;15.27;;;;;;;;;;5113270;28;20041;-68
2022/04/22 02:15:52;;;;;;;22.60;15.77;;;;;;;;;;5113017;28;20055;-69
2022/04/22 02:18:19;;;;;;;19.77;14.90;;;;;;;;;;5113038;28;20026;-69
2022/04/22 02:20:45;;;;;;;17.50;13.33;;;;;;;;;;5112627;28;20035;-69
2022/04/22 02:23:13;;;;;;;17.60;12.27;;;;;;;;;;5107554;28;20030;-69
2022/04/22 02:25:39;;;;;;;17.57;12.67;;;;;;;;;;5107404;28;20035;-68
2022/04/22 02:30:51;;;;;;;;;;;;;;;;;;5108059;28;20050;-69
2022/04/22 02:33:17;;;;;;;8.00;6.23;;;;;;;;;;5112317;28;20365;-68
2022/04/22 02:35:44;;;;;;;9.80;5.47;;;;;;;;;;5112325;28;20095;-68
2022/04/22 02:38:11;;;;;;;9.03;5.40;;;;;;;;;;5112358;28;20111;-68
2022/04/22 02:46:08;;;;;;;5.88;3.80;;;;;;;;;;5107214;28;20041;-68
2022/04/22 02:48:34;;;;;;;4.63;3.20;;;;;;;;;;5107311;28;20024;-67
2022/04/22 02:51:01;;;;;;;5.87;3.90;;;;;;;;;;5107315;28;20027;-68
2022/04/22 02:53:28;;;;;;;4.73;3.43;;;;;;;;;;5107151;28;20050;-68
2022/04/22 02:55:54;;;;;;;5.20;3.27;;;;;;;;;;5112355;28;20024;-67
2022/04/22 02:58:21;;;;;;;5.80;3.53;;;;;;;;;;5112269;28;20030;-67
2022/04/22 03:00:48;;;;;;;5.40;3.53;;;;;;;;;;5111776;28;20391;-69
2022/04/22 03:03:15;;;;;;;5.87;3.30;;;;;;;;;;5112294;28;20025;-67
2022/04/22 03:05:41;;;;;;;6.27;2.83;;;;;;;;;;5112352;28;20433;-67
2022/04/22 03:08:09;;;;;;;9.57;2.93;;;;;;;;;;5107173;28;20032;-66
2022/04/22 03:10:36;;;;;;;4.00;2.40;;;;;;;;;;5106750;28;20024;-67
2022/04/22 03:13:04;;;;;;;5.70;2.87;;;;;;;;;;5107277;28;20419;-67
2022/04/22 03:15:33;;;;;;;4.93;2.50;;;;;;;;;;5106603;28;20027;-67
2022/04/22 03:18:01;;;;;;;3.90;2.10;;;;;;;;;;5111596;28;20385;-66
2022/04/22 03:20:28;;;;;;;4.40;2.80;;;;;;;;;;5112310;28;20030;-67
2022/04/22 03:22:55;;;;;;;3.87;2.73;;;;;;;;;;5112334;28;20035;-67
2022/04/22 03:25:21;;;;;;;4.17;2.60;;;;;;;;;;5112029;28;20038;-67
2022/04/22 03:27:48;;;;;;;4.80;2.73;;;;;;;;;;5112590;28;20088;-67
2022/04/22 03:30:15;;;;;;;5.23;2.60;;;;;;;;;;5106976;28;20508;-67
2022/04/22 03:32:41;;;;;;;6.47;2.67;;;;;;;;;;5106725;28;20023;-67
2022/04/22 03:35:08;;;;;;;5.50;2.60;;;;;;;;;;5106707;28;20024;-67
2022/04/22 03:37:35;;;;;;;5.17;3.20;;;;;;;;;;5106854;28;20020;-68
2022/04/22 03:40:02;;;;;;;4.27;2.50;;;;;;;;;;5115224;28;20028;-67
2022/04/22 03:42:29;;;;;;;6.57;2.50;;;;;;;;;;5115643;28;20493;-67
2022/04/22 03:44:59;;;;;;;5.30;2.53;;;;;;;;;;5116200;28;20059;-67
2022/04/22 03:47:25;;;;;;;8.20;3.37;;;;;;;;;;5116974;28;20460;-67
2022/04/22 03:49:52;;;;;;;8.13;3.73;;;;;;;;;;5115948;28;20076;-67
2022/04/22 03:52:19;;;;;;;8.07;3.77;;;;;;;;;;5111279;28;20028;-68
2022/04/22 03:54:45;;;;;;;10.70;4.07;;;;;;;;;;5109954;28;20031;-66
2022/04/22 03:59:57;;;;;;;7.57;3.60;;;;;;;;;;5110611;28;20419;-67
2022/04/22 04:02:24;;;;;;;5.93;3.67;;;;;;;;;;5114547;28;20043;-66
2022/04/22 04:04:50;;;;;;;10.17;3.77;;;;;;;;;;5115308;28;20035;-67
2022/04/22 04:07:17;;;;;;;7.73;3.90;;;;;;;;;;5115657;28;20024;-67
2022/04/22 04:17:59;;;;;;;6.93;4.07;;;;;;;;;;5110189;28;19968;-67
2022/04/22 04:23:19;;;;;;;5.68;3.83;;;;;;;;;;5108585;28;20088;-68
2022/04/22 04:25:47;;;;;;;6.63;4.40;;;;;;;;;;5115042;28;20110;-68
2022/04/22 04:28:15;;;;;;;6.60;4.20;;;;;;;;;;5115104;28;20077;-66
2022/04/22 04:30:42;;;;;;;7.37;3.73;;;;;;;;;;5115020;28;20096;-66
2022/04/22 04:33:10;;;;;;;10.37;4.97;;;;;;;;;;5115013;28;20035;-66
2022/04/22 04:35:38;;;;;;;7.33;4.27;;;;;;;;;;5113296;28;20101;-68
2022/04/22 04:38:06;;;;;;;7.00;4.13;;;;;;;;;;5109782;28;20028;-67
2022/04/22 04:40:33;;;;;;;6.60;4.07;;;;;;;;;;5109859;28;20027;-67
2022/04/22 04:43:02;;;;;;;5.80;4.10;;;;;;;;;;5109578;28;20035;-67
2022/04/22 04:45:29;;;;;;;5.97;4.07;;;;;;;;;;5110123;28;20026;-66
2022/04/22 04:47:56;;;;;;;7.73;4.43;;;;;;;;;;5114896;28;20069;-67
2022/04/22 04:50:23;;;;;;;5.77;3.63;;;;;;;;;;5114664;28;20098;-67
2022/04/22 04:52:49;;;;;;;5.53;4.07;;;;;;;;;;5114275;28;20031;-67
2022/04/22 04:55:16;;;;;;;5.27;2.93;;;;;;;;;;5114928;28;20050;-67
2022/04/22 04:57:44;;;;;;;9.37;4.07;;;;;;;;;;5113515;28;20031;-66
2022/04/22 05:00:11;;;;;;;7.67;3.30;;;;;;;;;;5109058;28;20023;-66
2022/04/22 05:02:38;;;;;;;6.80;3.60;;;;;;;;;;5109273;28;20066;-66
2022/04/22 05:05:06;;;;;;;5.17;3.00;;;;;;;;;;5109222;28;20027;-67
2022/04/22 05:07:33;;;;;;;9.10;3.57;;;;;;;;;;5109496;28;20031;-67
2022/04/22 05:10:00;;;;;;;6.77;3.20;;;;;;;;;;5114751;28;20020;-67
2022/04/22 05:12:27;;;;;;;9.80;3.73;;;;;;;;;;5114984;28;20019;-67
2022/04/22 05:14:53;;;;;;;6.53;3.63;;;;;;;;;;5114197;28;20050;-67
2022/04/22 05:17:20;;;;;;;6.17;2.97;;;;;;;;;;5114466;28;20026;-67
2022/04/22 05:19:46;;;;;;;4.63;2.90;;;;;;;;;;5113529;28;20027;-67
2022/04/22 05:22:13;;;;;;;6.53;3.93;;;;;;;;;;5109082;28;20035;-66
2022/04/22 05:24:40;;;;;;;4.53;2.93;;;;;;;;;;5108618;28;20091;-69
2022/04/22 05:27:07;;;;;;;13.07;3.70;;;;;;;;;;5109176;28;20042;-67
2022/04/22 05:32:37;;;;;;;7.05;3.35;;;;;;;;;;5113897;28;20043;-67
2022/04/22 05:35:04;;;;;;;5.20;3.40;;;;;;;;;;5113458;28;20027;-67
2022/04/22 05:37:52;;;;;;;5.13;3.67;;;;;;;;;;5114011;28;20062;-68
2022/04/22 05:40:20;;;;;;;6.07;3.20;;;;;;;;;;5114165;28;20027;-68
2022/04/22 05:42:47;;;;;;;6.17;3.90;;;;;;;;;;5111613;28;20806;-67
2022/04/22 05:45:14;;;;;;;4.80;3.50;;;;;;;;;;5108423;28;20077;-69
2022/04/22 05:47:41;;;;;;;6.10;3.67;;;;;;;;;;5108123;28;20031;-67
2022/04/22 05:50:09;;;;;;;4.57;3.20;;;;;;;;;;5108130;28;20035;-67
2022/04/22 05:52:37;;;;;;;7.57;3.87;;;;;;;;;;5109386;28;20135;-67
2022/04/22 05:55:05;;;;;;;5.70;3.30;;;;;;;;;;5113710;28;20351;-66
2022/04/22 05:57:32;;;;;;;5.10;3.33;;;;;;;;;;5113599;28;20508;-66
2022/04/22 05:59:59;;;;;;;7.90;3.53;;;;;;;;;;5113066;28;20110;-67
2022/04/22 06:02:26;;;;;;;5.13;3.53;;;;;;;;;;5112483;28;20039;-66
2022/04/22 06:04:53;;;;;;;5.43;3.40;;;;;;;;;;5111932;28;20467;-67
2022/04/22 06:07:20;;;;;;;4.97;3.33;;;;;;;;;;5108076;28;20020;-67
2022/04/22 06:12:32;;;;;;;6.68;3.40;;;;;;;;;;5108609;28;20092;-67
2022/04/22 06:15:02;;;;;;;5.40;3.33;;;;;;;;;;5109082;28;20019;-67
2022/04/22 06:17:29;;;;;;;4.57;3.10;;;;;;;;;;5112937;28;20627;-67
2022/04/22 06:19:59;;;;;;;4.47;2.40;;;;;;;;;;5113220;28;20490;-67
2022/04/22 06:22:30;;;;;;;5.07;3.10;;;;;;;;;;5113481;28;20398;-67
2022/04/22 06:24:57;;;;;;;6.67;3.10;;;;;;;;;;5112615;28;20129;-68
2022/04/22 06:27:24;;;;;;;6.77;2.97;;;;;;;;;;5110974;28;20099;-67
2022/04/22 06:29:51;;;;;;;8.47;3.67;;;;;;;;;;5107185;28;20027;-67
2022/04/22 06:32:18;;;;;;;7.80;3.50;;;;;;;;;;5107602;28;20065;-67
2022/04/22 06:34:45;;;;;;;6.33;3.80;;;;;;;;;;5107571;28;20027;-67
2022/04/22 06:37:12;;;;;;;9.27;4.07;;;;;;;;;;5109223;28;20043;-67
2022/04/22 06:47:54;;;;;;;4.50;2.90;;;;;;;;;;5112397;28;20003;-69
2022/04/22 06:50:21;;;;;;;6.17;3.70;;;;;;;;;;5108993;28;20031;-67
2022/04/22 06:52:48;;;;;;;7.67;3.87;;;;;;;;;;5107052;28;20028;-67
2022/04/22 06:55:15;;;;;;;7.70;3.63;;;;;;;;;;5107470;28;20020;-67
2022/04/22 06:58:12;;;;;;;4.77;3.20;;;;;;;;;;5106665;28;20035;-67
2022/04/22 07:00:40;;;;;;;5.37;3.27;;;;;;;;;;5092589;28;20030;-67
2022/04/22 07:03:07;;;;;;;9.23;3.97;;;;;;;;;;5112348;28;20039;-67
2022/04/22 07:05:35;;;;;;;4.87;2.90;;;;;;;;;;5112542;28;20020;-67
2022/04/22 07:08:06;;;;;;;5.03;3.20;;;;;;;;;;5112602;28;20080;-67
2022/04/22 07:10:33;;;;;;;7.47;3.20;;;;;;;;;;5112774;28;20081;-67
2022/04/22 07:13:00;;;;;;;8.07;4.10;;;;;;;;;;5107410;28;20034;-67
2022/04/22 07:15:28;;;;;;;6.07;3.53;;;;;;;;;;5107176;28;20015;-67
2022/04/22 07:17:56;;;;;;;8.47;3.53;;;;;;;;;;5106407;28;20451;-67
2022/04/22 07:20:23;;;;;;;8.23;4.97;;;;;;;;;;5107278;28;20028;-67
2022/04/22 07:22:50;;;;;;;7.40;4.20;;;;;;;;;;5110151;28;20071;-66
2022/04/22 07:25:18;;;;;;;8.50;3.90;;;;;;;;;;5112119;28;20034;-67
2022/04/22 07:27:46;;;;;;;7.37;4.80;;;;;;;;;;5112107;28;20024;-68
2022/04/22 07:30:15;;;;;;;14.00;10.60;;;;;;;;;;5112656;28;20023;-66
2022/04/22 07:32:45;;;;;;;16.10;9.97;;;;;;;;;;5112078;28;20135;-66
2022/04/22 07:35:13;;;;;;;12.67;9.57;;;;;;;;;;5108237;28;20076;-67
2022/04/22 07:37:40;;;;;;;15.10;10.77;;;;;;;;;;5106873;28;20027;-67
2022/04/22 07:40:08;;;;;;;13.83;10.57;;;;;;;;;;5106771;28;20035;-67
2022/04/22 07:42:35;;;;;;;14.70;11.17;;;;;;;;;;5106495;28;20035;-68
2022/04/22 07:47:48;;;;;;;17.00;12.50;;;;;;;;;;5111967;28;20046;-67
2022/04/22 07:50:16;;;;;;;16.37;12.70;;;;;;;;;;5111965;28;20031;-66
2022/04/22 07:52:45;;;;;;;14.70;12.13;;;;;;;;;;5111540;28;20741;-67
2022/04/22 07:55:13;;;;;;;15.27;12.37;;;;;;;;;;5111709;28;20458;-67
2022/04/22 07:57:40;;;;;;;16.87;12.07;;;;;;;;;;5107743;28;20019;-66
2022/04/22 08:00:11;;;;;;;17.93;14.47;;;;;;;;;;5106833;28;20027;-66
2022/04/22 08:02:40;;;;;;;18.80;14.13;;;;;;;;;;5106447;28;20040;-66
2022/04/22 08:05:11;;;;;;;18.33;13.40;;;;;;;;;;5106581;28;20027;-67
2022/04/22 08:07:38;;;;;;;18.13;14.23;;;;;;;;;;5110352;28;20114;-66
2022/04/22 08:10:06;;;;;;;18.53;14.33;;;;;;;;;;5112118;28;20020;-66
2022/04/22 08:12:33;;;;;;;18.47;14.33;;;;;;;;;;5111692;28;20027;-67
2022/04/22 08:15:03;;;;;;;21.00;14.33;;;;;;;;;;5112161;28;20474;-66
2022/04/22 08:17:37;;;;;;;18.27;15.23;;;;;;;;;;5111983;28;20035;-66
2022/04/22 08:20:07;;;;;;;18.13;13.80;;;;;;;;;;5106824;28;20038;-67
2022/04/22 08:22:36;;;;;;;17.67;13.33;;;;;;;;;;5086458;28;20085;-67
2022/04/22 08:25:04;;;;;;;16.27;12.53;;;;;;;;;;5107528;28;20050;-67
2022/04/22 08:27:31;;;;;;;17.13;12.23;;;;;;;;;;5109949;28;20476;-66
2022/04/22 08:29:59;;;;;;;18.40;13.43;;;;;;;;;;5113925;28;20080;-67
2022/04/22 08:32:26;;;;;;;22.43;15.83;;;;;;;;;;5115100;28;20028;-66
2022/04/22 08:34:53;;;;;;;17.57;12.97;;;;;;;;;;5115017;28;20382;-66
2022/04/22 08:37:20;;;;;;;17.03;13.63;;;;;;;;;;5114863;28;20034;-67
2022/04/22 08:39:47;;;;;;;16.43;12.87;;;;;;;;;;5114906;28;20088;-66
2022/04/22 08:42:15;;;;;;;20.23;13.80;;;;;;;;;;5110867;28;20039;-67
2022/04/22 08:44:41;;;;;;;16.80;12.83;;;;;;;;;;5109538;28;20474;-66
2022/04/22 08:50:02;;;;;;;16.53;13.93;;;;;;;;;;5109485;28;20144;-67
2022/04/22 08:52:34;;;;;;;18.83;14.33;;;;;;;;;;5113486;28;20478;-66
2022/04/22 08:55:02;;;;;;;18.23;15.00;;;;;;;;;;5114633;28;20034;-66
2022/04/22 08:57:29;;;;;;;17.23;13.27;;;;;;;;;;5114427;28;20028;-66
2022/04/22 09:00:03;;;;;;;17.80;13.37;;;;;;;;;;5114189;28;20068;-66
2022/04/22 09:02:30;;;;;;;14.77;11.55;;;;;;;;;;5114289;28;20042;-66
2022/04/22 09:04:57;;;;;;;16.17;12.10;;;;;;;;;;5109419;28;20032;-67
2022/04/22 09:07:27;;;;;;;18.67;12.60;;;;;;;;;;5109096;28;20042;-67
2022/04/22 09:09:55;;;;;;;15.57;12.37;;;;;;;;;;5109067;28;20036;-67
2022/04/22 09:12:23;;;;;;;18.13;12.07;;;;;;;;;;5109304;28;20062;-67
2022/04/22 09:14:51;;;;;;;19.23;13.87;;;;;;;;;;5113523;28;20031;-66
2022/04/22 09:17:22;;;;;;;19.97;15.67;;;;;;;;;;5114087;28;20125;-66
2022/04/22 09:19:51;;;;;;;18.23;13.30;;;;;;;;;;5114607;28;20051;-66
2022/04/22 09:22:28;;;;;;;18.47;14.57;;;;;;;;;;5113963;28;20378;-66
2022/04/22 09:24:59;;;;;;;22.60;15.33;;;;;;;;;;5114162;28;20473;-66
2022/04/22 09:27:42;;;;;;;23.20;14.73;;;;;;;;;;5109006;28;20103;-66
2022/04/22 09:30:11;;;;;;;20.07;15.30;;;;;;;;;;5109051;28;20140;-66
2022/04/22 09:32:40;;;;;;;18.87;14.77;;;;;;;;;;5108610;28;20106;-66
2022/04/22 09:35:09;;;;;;;18.20;15.77;;;;;;;;;;5108818;28;20023;-66
2022/04/22 09:43:42;;;;;;;17.63;13.13;;;;;;;;;;5113962;28;20113;-66
2022/04/22 09:46:20;;;;;;;22.93;13.50;;;;;;;;;;5095668;28;20125;-66
2022/04/22 09:48:47;;;;;;;17.30;14.60;;;;;;;;;;5110215;28;20104;-66
2022/04/22 09:51:40;;;;;;;18.77;14.37;;;;;;;;;;5108276;28;20057;-66
2022/04/22 09:54:10;;;;;;;17.73;14.17;;;;;;;;;;5101145;28;20036;-66
2022/04/22 09:56:38;;;;;;;22.00;14.33;;;;;;;;;;5108161;28;20102;-67
2022/04/22 09:59:24;;;;;;;22.40;15.67;;;;;;;;;;5112011;28;20034;-66
2022/04/22 10:01:51;;;;;;;18.83;13.83;;;;;;;;;;5113800;28;20036;-66
2022/04/22 10:04:18;;;;;;;17.70;14.00;;;;;;;;;;5113526;28;20034;-66
2022/04/22 10:06:45;;;;;;;18.60;13.13;;;;;;;;;;5113277;28;20545;-67
2022/04/22 10:09:15;;;;;;;18.27;14.30;;;;;;;;;;5113525;28;20024;-66
2022/04/22 10:11:43;;;;;;;16.77;13.13;;;;;;;;;;5108384;28;20042;-67
2022/04/22 10:14:10;;;;;;;19.73;13.53;;;;;;;;;;5107616;28;20072;-67
2022/04/22 10:16:37;;;;;;;17.63;12.73;;;;;;;;;;5107751;28;20023;-66
2022/04/22 10:19:08;;;;;;;18.93;12.33;;;;;;;;;;5107692;28;20103;-66
2022/04/22 10:21:34;;;;;;;17.37;12.87;;;;;;;;;;5111692;28;20072;-67
2022/04/22 10:24:01;;;;;;;16.80;12.87;;;;;;;;;;5112885;28;20554;-66
2022/04/22 10:26:28;;;;;;;16.53;11.97;;;;;;;;;;5112889;28;20028;-66
2022/04/22 10:28:55;;;;;;;18.40;12.53;;;;;;;;;;5113202;28;20116;-66
2022/04/22 10:31:23;;;;;;;14.93;11.83;;;;;;;;;;5113169;28;20389;-66
2022/04/22 10:33:50;;;;;;;15.80;10.77;;;;;;;;;;5108431;28;20035;-66
2022/04/22 10:36:18;;;;;;;16.07;12.27;;;;;;;;;;5107463;28;20039;-66
2022/04/22 10:38:50;;;;;;;18.07;13.60;;;;;;;;;;5091508;28;20152;-66
2022/04/22 10:41:18;;;;;;;16.20;12.60;;;;;;;;;;5107134;28;20050;-67
2022/04/22 10:49:18;;;;;;;18.08;12.75;;;;;;;;;;5112498;28;20137;-67
2022/04/22 10:52:02;;;;;;;18.37;13.30;;;;;;;;;;5112612;28;20024;-67
2022/04/22 10:54:47;;;;;;;19.33;12.38;;;;;;;;;;5111440;28;20031;-66
2022/04/22 10:57:18;;;;;;;18.88;12.27;;;;;;;;;;5107271;28;20032;-66
2022/04/22 10:59:45;;;;;;;18.67;13.30;;;;;;;;;;5107055;28;20102;-67
2022/04/22 11:02:31;;;;;;;17.63;12.83;;;;;;;;;;5089247;28;20442;-66
2022/04/22 11:05:25;;;;;;;20.40;15.33;;;;;;;;;;5090338;28;20416;-67
2022/04/22 11:07:58;;;;;;;21.73;14.17;;;;;;;;;;5112675;28;20043;-66
2022/04/22 11:10:26;;;;;;;16.37;13.00;;;;;;;;;;5111939;28;20035;-66
2022/04/22 11:12:53;;;;;;;18.80;13.80;;;;;;;;;;5112871;28;20361;-66
2022/04/22 11:15:38;;;;;;;13.80;11.63;;;;;;;;;;5112210;28;20059;-66
2022/04/22 11:18:05;;;;;;;18.25;12.85;;;;;;;;;;5108618;28;20030;-66
2022/04/22 11:20:32;;;;;;;15.97;12.47;;;;;;;;;;5107175;28;20036;-66
2022/04/22 11:22:59;;;;;;;13.93;10.80;;;;;;;;;;5106907;28;20059;-66
2022/04/22 11:25:26;;;;;;;14.57;10.50;;;;;;;;;;5106906;28;20106;-66
2022/04/22 11:27:56;;;;;;;15.23;10.50;;;;;;;;;;5109718;28;20036;-66
2022/04/22 11:30:23;;;;;;;12.90;9.53;;;;;;;;;;5112020;28;20020;-69
2022/04/22 11:32:52;;;;;;;17.10;13.37;;;;;;;;;;5112535;28;20055;-66
2022/04/22 11:35:20;;;;;;;18.33;12.57;;;;;;;;;;5112451;28;20024;-66
2022/04/22 11:37:57;;;;;;;18.30;12.30;;;;;;;;;;5112405;28;20027;-67
2022/04/22 11:40:23;;;;;;;12.97;9.90;;;;;;;;;;5108412;28;20020;-66
2022/04/22 11:42:54;;;;;;;12.97;9.97;;;;;;;;;;5088759;28;20393;-66
2022/04/22 11:45:21;;;;;;;18.00;12.07;;;;;;;;;;5091412;28;20059;-66
2022/04/22 11:47:48;;;;;;;16.70;12.23;;;;;;;;;;5106588;28;20036;-66
2022/04/22 11:50:24;;;;;;;18.60;12.83;;;;;;;;;;5109947;28;20473;-66
2022/04/22 11:52:52;;;;;;;16.50;11.33;;;;;;;;;;5112315;28;20377;-66
2022/04/22 11:55:21;;;;;;;15.63;11.47;;;;;;;;;;5111687;28;20077;-66
2022/04/22 11:57:49;;;;;;;16.13;12.23;;;;;;;;;;5112002;28;20028;-66
2022/04/22 12:05:49;;;;;;;16.05;11.60;;;;;;;;;;5110531;28;20074;-67
2022/04/22 12:08:17;;;;;;;15.57;11.70;;;;;;;;;;5110284;28;20096;-66
2022/04/22 12:10:45;;;;;;;16.77;12.17;;;;;;;;;;5110544;28;20032;-66
2022/04/22 12:13:14;;;;;;;16.33;10.50;;;;;;;;;;5115194;28;20110;-67
2022/04/22 12:15:45;;;;;;;18.17;11.90;;;;;;;;;;5115911;28;20348;-66
2022/04/22 12:18:28;;;;;;;14.87;10.40;;;;;;;;;;5115258;28;20126;-66
2022/04/22 12:20:55;;;;;;;15.87;11.83;;;;;;;;;;5095518;28;20052;-65
2022/04/22 12:23:22;;;;;;;16.10;12.27;;;;;;;;;;5095936;28;20032;-66
2022/04/22 12:25:55;;;;;;;21.23;14.33;;;;;;;;;;5109752;28;20038;-66
2022/04/22 12:28:22;;;;;;;20.30;13.50;;;;;;;;;;5109903;28;20067;-69
2022/04/22 12:30:49;;;;;;;22.27;13.03;;;;;;;;;;5109393;28;20027;-66
2022/04/22 12:33:20;;;;;;;14.20;11.37;;;;;;;;;;5109948;28;20131;-66
2022/04/22 12:35:48;;;;;;;15.87;12.40;;;;;;;;;;5115394;28;20484;-66
2022/04/22 12:38:17;;;;;;;21.90;14.33;;;;;;;;;;5115249;28;20028;-66
2022/04/22 12:40:45;;;;;;;18.77;13.10;;;;;;;;;;5115179;28;20473;-66
2022/04/22 12:43:28;;;;;;;14.83;11.67;;;;;;;;;;5114812;28;20031;-67
2022/04/22 12:54:22;;;;;;;16.60;11.27;;;;;;;;;;5109270;28;20026;-66
2022/04/22 12:56:55;;;;;;;22.50;12.17;;;;;;;;;;5111731;28;20478;-68
2022/04/22 12:59:22;;;;;;;19.50;12.70;;;;;;;;;;5114864;28;20066;-66
2022/04/22 13:01:49;;;;;;;20.27;14.03;;;;;;;;;;5114510;28;20063;-65
2022/04/22 13:04:26;;;;;;;19.30;13.80;;;;;;;;;;5114736;28;20020;-66
2022/04/22 13:06:53;;;;;;;17.23;13.57;;;;;;;;;;5114720;28;20103;-65
2022/04/22 13:09:24;;;;;;;17.87;14.20;;;;;;;;;;5110521;28;20031;-66
2022/04/22 13:11:51;;;;;;;20.93;14.20;;;;;;;;;;5109120;28;20398;-65
2022/04/22 13:14:18;;;;;;;25.90;14.47;;;;;;;;;;5109038;28;20082;-66
2022/04/22 13:16:45;;;;;;;21.33;14.13;;;;;;;;;;5109286;28;20096;-66
2022/04/22 13:19:12;;;;;;;18.17;14.40;;;;;;;;;;5112044;28;20020;-65
2022/04/22 13:21:39;;;;;;;16.93;13.80;;;;;;;;;;5114425;28;20036;-66
2022/04/22 13:24:06;;;;;;;14.67;10.60;;;;;;;;;;5113704;28;20031;-66
2022/04/22 13:26:33;;;;;;;15.33;11.53;;;;;;;;;;5113688;28;20028;-66
2022/04/22 13:28:59;;;;;;;19.47;13.43;;;;;;;;;;5095975;28;20421;-66
2022/04/22 13:31:26;;;;;;;16.07;13.10;;;;;;;;;;5109584;28;20031;-65
2022/04/22 13:33:53;;;;;;;14.43;11.90;;;;;;;;;;5108796;28;20059;-65
2022/04/22 13:36:20;;;;;;;16.73;11.60;;;;;;;;;;5108692;28;20032;-66
2022/04/22 13:38:48;;;;;;;19.00;12.73;;;;;;;;;;5108169;28;20031;-66
2022/04/22 13:41:16;;;;;;;16.53;12.47;;;;;;;;;;5111216;28;20028;-66
2022/04/22 13:43:43;;;;;;;15.73;11.03;;;;;;;;;;5113147;28;20446;-66
2022/04/22 13:54:25;;;;;;;11.80;8.55;;;;;;;;;;5108098;28;20410;-66
2022/04/22 13:56:52;;;;;;;12.13;8.83;;;;;;;;;;5108062;28;20122;-66
2022/04/22 13:59:18;;;;;;;12.27;8.47;;;;;;;;;;5107466;28;20084;-68
2022/04/22 14:01:45;;;;;;;13.67;8.73;;;;;;;;;;5107752;28;20039;-66
2022/04/22 14:04:12;;;;;;;12.47;7.77;;;;;;;;;;5112461;28;20488;-66
2022/04/22 14:06:38;;;;;;;12.13;7.77;;;;;;;;;;5113688;28;20367;-66
2022/04/22 14:09:05;;;;;;;13.10;8.37;;;;;;;;;;5113385;28;20030;-66
2022/04/22 14:11:32;;;;;;;13.00;7.97;;;;;;;;;;5113965;28;20172;-66
2022/04/22 14:13:58;;;;;;;15.73;7.70;;;;;;;;;;5113260;28;20059;-66
2022/04/22 14:16:26;;;;;;;10.90;7.57;;;;;;;;;;5107974;28;20045;-67
2022/04/22 14:18:53;;;;;;;11.40;7.67;;;;;;;;;;5107879;28;20047;-67
2022/04/22 14:21:19;;;;;;;9.47;7.10;;;;;;;;;;5107928;28;20531;-66
2022/04/22 14:23:46;;;;;;;12.53;7.93;;;;;;;;;;5106823;28;20015;-66
2022/04/22 14:26:13;;;;;;;9.67;7.63;;;;;;;;;;5111586;28;20031;-66
2022/04/22 14:28:40;;;;;;;10.73;8.27;;;;;;;;;;5112622;28;20770;-66
2022/04/22 14:31:07;;;;;;;9.37;7.43;;;;;;;;;;5112311;28;20024;-71
2022/04/22 14:33:33;;;;;;;10.43;7.33;;;;;;;;;;5113037;28;20027;-66
2022/04/22 14:36:02;;;;;;;12.87;8.53;;;;;;;;;;5113023;28;20031;-66
2022/04/22 14:38:28;;;;;;;11.43;7.83;;;;;;;;;;5108158;28;20020;-66
2022/04/22 14:40:55;;;;;;;14.57;8.07;;;;;;;;;;5107498;28;20523;-66
2022/04/22 14:43:22;;;;;;;12.00;7.80;;;;;;;;;;5107082;28;20032;-67
2022/04/22 14:45:49;;;;;;;11.73;8.43;;;;;;;;;;5091949;28;20055;-67
2022/04/22 14:48:16;;;;;;;10.20;7.80;;;;;;;;;;5110538;28;20062;-67
2022/04/22 14:50:43;;;;;;;12.53;8.00;;;;;;;;;;5112672;28;20032;-67
2022/04/22 14:53:10;;;;;;;10.53;7.50;;;;;;;;;;5113040;28;20023;-67
2022/04/22 14:55:38;;;;;;;14.97;7.80;;;;;;;;;;5112182;28;20023;-67
2022/04/22 14:58:04;;;;;;;9.30;7.00;;;;;;;;;;5111950;28;20038;-67
2022/04/22 15:00:34;;;;;;;12.07;7.63;;;;;;;;;;5108685;28;20484;-67
2022/04/22 15:03:01;;;;;;;9.37;7.00;;;;;;;;;;5106924;28;20039;-67
2022/04/22 15:05:27;;;;;;;11.87;7.37;;;;;;;;;;5107080;28;20028;-67
2022/04/22 15:07:55;;;;;;;10.07;8.17;;;;;;;;;;5107300;28;20527;-67
2022/04/22 15:10:22;;;;;;;14.30;7.50;;;;;;;;;;5110428;28;20374;-67
2022/04/22 15:12:50;;;;;;;10.00;7.63;;;;;;;;;;5112460;28;20027;-67
2022/04/22 15:15:17;;;;;;;10.97;7.87;;;;;;;;;;5112205;28;20470;-67
2022/04/22 15:25:59;;;;;;;11.30;7.63;;;;;;;;;;5106860;28;20125;-67
2022/04/22 15:28:25;;;;;;;9.07;6.73;;;;;;;;;;5106773;28;20031;-68
2022/04/22 15:31:34;;;;;;;9.07;7.70;;;;;;;;;;5106746;28;20043;-67
2022/04/22 15:33:54;;;;;;;10.33;7.40;;;;;;;;;;5107494;28;20470;-67
2022/04/22 15:36:21;;;;;;;9.30;7.97;;;;;;;;;;5116469;28;20028;-67
2022/04/22 15:38:49;;;;;;;11.70;7.90;;;;;;;;;;5116341;28;20035;-67
2022/04/22 15:41:17;;;;;;;10.60;8.00;;;;;;;;;;5116425;28;20401;-67
2022/04/22 15:43:45;;;;;;;10.70;8.15;;;;;;;;;;5115332;28;20023;-67
2022/04/22 15:46:12;;;;;;;9.77;6.83;;;;;;;;;;5110118;28;20103;-68
2022/04/22 15:48:39;;;;;;;10.93;8.13;;;;;;;;;;5110256;28;20081;-68
2022/04/22 15:51:06;;;;;;;11.73;8.43;;;;;;;;;;5110785;28;20028;-67
2022/04/22 15:53:34;;;;;;;12.00;8.27;;;;;;;;;;5110403;28;20103;-69
2022/04/22 15:56:02;;;;;;;13.95;7.78;;;;;;;;;;5115894;28;20023;-68
2022/04/22 15:58:28;;;;;;;8.82;7.15;;;;;;;;;;5115926;28;20020;-68
2022/04/22 16:00:55;;;;;;;9.45;7.68;;;;;;;;;;5115465;28;20030;-70
2022/04/22 16:03:23;;;;;;;12.00;7.43;;;;;;;;;;5115177;28;20027;-68